createdAt,value
2017-04-04T00:00:19.757Z,1018.57
2017-04-04T00:01:19.743Z,1018.56
2017-04-04T00:02:19.718Z,1018.54
2017-04-04T00:03:19.703Z,1018.53
2017-04-04T00:04:19.678Z,1018.53
2017-04-04T00:05:19.665Z,1018.52
2017-04-04T00:06:19.641Z,1018.51
2017-04-04T00:07:19.618Z,1018.53
2017-04-04T00:08:19.601Z,1018.48
2017-04-04T00:09:19.582Z,1018.47
2017-04-04T00:10:19.557Z,1018.46
2017-04-04T00:11:19.551Z,1018.45
2017-04-04T00:12:19.522Z,1018.44
2017-04-04T00:13:19.496Z,1018.47
2017-04-04T00:14:19.480Z,1018.45
2017-04-04T00:15:19.455Z,1018.43
2017-04-04T00:16:19.438Z,1018.39
2017-04-04T00:17:19.419Z,1018.44
2017-04-04T00:18:19.401Z,1018.41
2017-04-04T00:19:19.379Z,1018.4
2017-04-04T00:20:19.359Z,1018.36
2017-04-04T00:21:19.339Z,1018.35
2017-04-04T00:22:19.321Z,1018.38
2017-04-04T00:23:19.299Z,1018.34
2017-04-04T00:24:19.275Z,1018.32
2017-04-04T00:25:19.258Z,1018.34
2017-04-04T00:26:19.240Z,1018.35
2017-04-04T00:27:19.216Z,1018.36
2017-04-04T00:28:19.199Z,1018.38
2017-04-04T00:29:19.177Z,1018.41
2017-04-04T00:30:19.157Z,1018.39
2017-04-04T00:31:19.140Z,1018.39
2017-04-04T00:32:19.114Z,1018.39
2017-04-04T00:33:19.093Z,1018.35
2017-04-04T00:34:19.077Z,1018.36
2017-04-04T00:35:19.054Z,1018.38
2017-04-04T00:36:19.032Z,1018.35
2017-04-04T00:37:19.017Z,1018.31
2017-04-04T00:38:18.992Z,1018.33
2017-04-04T00:39:18.972Z,1018.29
2017-04-04T00:40:18.952Z,1018.3
2017-04-04T00:41:18.932Z,1018.28
2017-04-04T00:42:18.911Z,1018.26
2017-04-04T00:43:18.893Z,1018.24
2017-04-04T00:44:18.872Z,1018.28
2017-04-04T00:45:18.853Z,1018.24
2017-04-04T00:46:18.828Z,1018.26
2017-04-04T00:47:18.809Z,1018.27
2017-04-04T00:48:18.791Z,1018.25
2017-04-04T00:49:18.770Z,1018.22
2017-04-04T00:50:18.746Z,1018.26
2017-04-04T00:51:18.730Z,1018.23
2017-04-04T00:52:18.710Z,1018.26
2017-04-04T00:53:18.692Z,1018.26
2017-04-04T00:54:18.671Z,1018.28
2017-04-04T00:55:18.646Z,1018.26
2017-04-04T00:56:18.622Z,1018.25
2017-04-04T00:57:18.609Z,1018.21
2017-04-04T00:58:18.589Z,1018.21
2017-04-04T00:59:18.563Z,1018.2
2017-04-04T01:00:18.544Z,1018.21
2017-04-04T01:01:18.527Z,1018.16
2017-04-04T01:02:18.499Z,1018.2
2017-04-04T01:03:18.484Z,1018.15
2017-04-04T01:04:18.462Z,1018.17
2017-04-04T01:05:18.439Z,1018.12
2017-04-04T01:06:18.463Z,1018.12
2017-04-04T01:07:18.397Z,1018.1
2017-04-04T01:08:18.381Z,1018.11
2017-04-04T01:09:18.359Z,1018.07
2017-04-04T01:10:18.335Z,1018.08
2017-04-04T01:11:18.323Z,1018.03
2017-04-04T01:12:18.295Z,1018.07
2017-04-04T01:13:18.285Z,1018.08
2017-04-04T01:14:18.252Z,1018.05
2017-04-04T01:15:18.232Z,1018.05
2017-04-04T01:16:18.211Z,1018.03
2017-04-04T01:17:18.193Z,1018.05
2017-04-04T01:18:18.170Z,1018.06
2017-04-04T01:19:18.152Z,1018.06
2017-04-04T01:20:18.128Z,1018.05
2017-04-04T01:21:18.109Z,1018.03
2017-04-04T01:22:18.091Z,1018.05
2017-04-04T01:23:18.068Z,1018
2017-04-04T01:24:18.044Z,1018
2017-04-04T01:25:18.033Z,1017.98
2017-04-04T01:26:18.005Z,1018.02
2017-04-04T01:27:17.983Z,1017.97
2017-04-04T01:28:17.962Z,1018
2017-04-04T01:29:17.941Z,1017.95
2017-04-04T01:30:17.919Z,1017.96
2017-04-04T01:31:17.950Z,1017.96
2017-04-04T01:32:17.882Z,1018
2017-04-04T01:33:17.860Z,1017.94
2017-04-04T01:34:17.839Z,1017.95
2017-04-04T01:35:17.820Z,1017.94
2017-04-04T01:36:17.795Z,1017.98
2017-04-04T01:37:17.781Z,1017.94
2017-04-04T01:38:17.754Z,1017.93
2017-04-04T01:39:17.733Z,1017.94
2017-04-04T01:40:17.712Z,1017.95
2017-04-04T01:41:17.701Z,1017.94
2017-04-04T01:42:17.674Z,1017.93
2017-04-04T01:43:17.698Z,1017.95
2017-04-04T01:44:17.631Z,1017.94
2017-04-04T01:45:17.640Z,1017.94
2017-04-04T01:46:17.593Z,1017.97
2017-04-04T01:47:17.617Z,1017.92
2017-04-04T01:48:17.550Z,1017.94
2017-04-04T01:49:17.526Z,1017.93
2017-04-04T01:50:17.501Z,1017.93
2017-04-04T01:51:17.481Z,1017.93
2017-04-04T01:52:17.464Z,1017.9
2017-04-04T01:53:17.444Z,1017.87
2017-04-04T01:54:17.423Z,1017.84
2017-04-04T01:55:17.402Z,1017.84
2017-04-04T01:56:17.381Z,1017.84
2017-04-04T01:57:17.355Z,1017.8
2017-04-04T01:58:17.344Z,1017.81
2017-04-04T01:59:17.311Z,1017.76
2017-04-04T02:00:17.292Z,1017.81
2017-04-04T02:01:17.271Z,1017.8
2017-04-04T02:02:17.252Z,1017.8
2017-04-04T02:03:17.233Z,1017.81
2017-04-04T02:04:17.211Z,1017.81
2017-04-04T02:05:17.191Z,1017.77
2017-04-04T02:06:17.166Z,1017.79
2017-04-04T02:07:17.145Z,1017.78
2017-04-04T02:08:17.127Z,1017.78
2017-04-04T02:09:17.102Z,1017.78
2017-04-04T02:10:17.082Z,1017.78
2017-04-04T02:11:17.064Z,1017.75
2017-04-04T02:12:17.042Z,1017.78
2017-04-04T02:13:17.019Z,1017.76
2017-04-04T02:14:17.002Z,1017.74
2017-04-04T02:15:16.977Z,1017.76
2017-04-04T02:16:16.955Z,1017.75
2017-04-04T02:17:16.933Z,1017.72
2017-04-04T02:18:16.913Z,1017.67
2017-04-04T02:19:16.894Z,1017.71
2017-04-04T02:20:16.870Z,1017.67
2017-04-04T02:21:16.854Z,1017.67
2017-04-04T02:22:16.830Z,1017.7
2017-04-04T02:23:16.809Z,1017.67
2017-04-04T02:24:16.793Z,1017.67
2017-04-04T02:25:16.762Z,1017.67
2017-04-04T02:26:16.742Z,1017.72
2017-04-04T02:27:16.725Z,1017.74
2017-04-04T02:28:16.702Z,1017.73
2017-04-04T02:29:16.678Z,1017.7
2017-04-04T02:30:16.664Z,1017.74
2017-04-04T02:31:16.638Z,1017.75
2017-04-04T02:32:16.614Z,1017.7
2017-04-04T02:33:16.593Z,1017.73
2017-04-04T02:34:16.573Z,1017.74
2017-04-04T02:35:16.553Z,1017.74
2017-04-04T02:36:16.528Z,1017.7
2017-04-04T02:37:16.513Z,1017.7
2017-04-04T02:38:16.489Z,1017.7
2017-04-04T02:39:16.473Z,1017.71
2017-04-04T02:40:16.444Z,1017.69
2017-04-04T02:41:16.425Z,1017.7
2017-04-04T02:42:16.401Z,1017.71
2017-04-04T02:43:16.382Z,1017.69
2017-04-04T02:44:16.362Z,1017.73
2017-04-04T02:45:16.359Z,1017.69
2017-04-04T02:46:16.316Z,1017.71
2017-04-04T02:47:16.300Z,1017.67
2017-04-04T02:48:16.273Z,1017.67
2017-04-04T02:49:16.258Z,1017.72
2017-04-04T02:50:16.235Z,1017.7
2017-04-04T02:51:16.212Z,1017.69
2017-04-04T02:52:16.194Z,1017.7
2017-04-04T02:53:16.181Z,1017.66
2017-04-04T02:54:16.153Z,1017.63
2017-04-04T02:55:16.124Z,1017.65
2017-04-04T02:56:16.101Z,1017.61
2017-04-04T02:57:16.082Z,1017.61
2017-04-04T02:58:16.061Z,1017.59
2017-04-04T02:59:16.037Z,1017.62
2017-04-04T03:00:16.014Z,1017.61
2017-04-04T03:01:15.995Z,1017.61
2017-04-04T03:02:15.971Z,1017.63
2017-04-04T03:03:15.950Z,1017.59
2017-04-04T03:04:15.928Z,1017.57
2017-04-04T03:05:15.911Z,1017.55
2017-04-04T03:06:15.887Z,1017.53
2017-04-04T03:07:15.866Z,1017.54
2017-04-04T03:08:15.852Z,1017.49
2017-04-04T03:09:15.820Z,1017.55
2017-04-04T03:10:15.802Z,1017.57
2017-04-04T03:11:15.778Z,1017.54
2017-04-04T03:12:15.757Z,1017.55
2017-04-04T03:13:15.746Z,1017.55
2017-04-04T03:14:15.714Z,1017.54
2017-04-04T03:15:15.692Z,1017.54
2017-04-04T03:16:15.672Z,1017.54
2017-04-04T03:17:15.657Z,1017.54
2017-04-04T03:18:15.633Z,1017.52
2017-04-04T03:19:15.610Z,1017.49
2017-04-04T03:20:15.592Z,1017.49
2017-04-04T03:21:15.564Z,1017.51
2017-04-04T03:22:15.542Z,1017.49
2017-04-04T03:23:15.521Z,1017.48
2017-04-04T03:24:15.499Z,1017.43
2017-04-04T03:25:15.475Z,1017.41
2017-04-04T03:26:15.457Z,1017.39
2017-04-04T03:27:15.430Z,1017.38
2017-04-04T03:28:15.411Z,1017.34
2017-04-04T03:29:15.390Z,1017.31
2017-04-04T03:30:15.372Z,1017.31
2017-04-04T03:31:15.354Z,1017.3
2017-04-04T03:32:15.324Z,1017.34
2017-04-04T03:33:15.301Z,1017.32
2017-04-04T03:34:15.282Z,1017.34
2017-04-04T03:35:15.260Z,1017.39
2017-04-04T03:36:15.241Z,1017.38
2017-04-04T03:37:15.214Z,1017.34
2017-04-04T03:38:15.194Z,1017.39
2017-04-04T03:39:15.170Z,1017.36
2017-04-04T03:40:15.154Z,1017.32
2017-04-04T03:41:15.134Z,1017.34
2017-04-04T03:42:15.108Z,1017.34
2017-04-04T03:43:15.085Z,1017.38
2017-04-04T03:44:15.062Z,1017.37
2017-04-04T03:45:15.042Z,1017.39
2017-04-04T03:46:15.023Z,1017.39
2017-04-04T03:47:14.998Z,1017.41
2017-04-04T03:48:14.978Z,1017.39
2017-04-04T03:49:14.951Z,1017.44
2017-04-04T03:50:14.931Z,1017.43
2017-04-04T03:51:14.916Z,1017.41
2017-04-04T03:52:14.889Z,1017.4
2017-04-04T03:53:14.865Z,1017.38
2017-04-04T03:54:14.842Z,1017.38
2017-04-04T03:55:14.822Z,1017.34
2017-04-04T03:56:14.802Z,1017.33
2017-04-04T03:57:14.780Z,1017.34
2017-04-04T03:58:14.762Z,1017.33
2017-04-04T03:59:14.734Z,1017.32
2017-04-04T04:00:14.717Z,1017.3
2017-04-04T04:01:14.692Z,1017.35
2017-04-04T04:02:14.673Z,1017.32
2017-04-04T04:03:14.654Z,1017.31
2017-04-04T04:04:14.627Z,1017.28
2017-04-04T04:05:14.607Z,1017.3
2017-04-04T04:06:14.583Z,1017.27
2017-04-04T04:07:14.562Z,1017.27
2017-04-04T04:08:14.535Z,1017.28
2017-04-04T04:09:14.522Z,1017.32
2017-04-04T04:10:14.500Z,1017.29
2017-04-04T04:11:14.473Z,1017.31
2017-04-04T04:12:14.450Z,1017.32
2017-04-04T04:13:14.432Z,1017.33
2017-04-04T04:14:14.404Z,1017.31
2017-04-04T04:15:14.382Z,1017.28
2017-04-04T04:16:14.363Z,1017.29
2017-04-04T04:17:14.351Z,1017.3
2017-04-04T04:18:14.325Z,1017.32
2017-04-04T04:19:14.295Z,1017.34
2017-04-04T04:20:14.271Z,1017.35
2017-04-04T04:21:14.251Z,1017.27
2017-04-04T04:22:14.230Z,1017.31
2017-04-04T04:23:14.209Z,1017.29
2017-04-04T04:24:14.188Z,1017.33
2017-04-04T04:25:14.166Z,1017.29
2017-04-04T04:26:14.142Z,1017.3
2017-04-04T04:27:14.120Z,1017.29
2017-04-04T04:28:14.098Z,1017.32
2017-04-04T04:29:14.076Z,1017.34
2017-04-04T04:30:14.051Z,1017.31
2017-04-04T04:31:14.031Z,1017.31
2017-04-04T04:32:14.014Z,1017.3
2017-04-04T04:33:13.991Z,1017.31
2017-04-04T04:34:13.964Z,1017.33
2017-04-04T04:35:13.944Z,1017.33
2017-04-04T04:36:13.921Z,1017.34
2017-04-04T04:37:13.899Z,1017.32
2017-04-04T04:38:13.882Z,1017.34
2017-04-04T04:39:13.864Z,1017.31
2017-04-04T04:40:13.833Z,1017.34
2017-04-04T04:41:13.814Z,1017.34
2017-04-04T04:42:13.792Z,1017.35
2017-04-04T04:43:13.768Z,1017.34
2017-04-04T04:44:13.741Z,1017.32
2017-04-04T04:45:13.722Z,1017.3
2017-04-04T04:46:13.704Z,1017.33
2017-04-04T04:47:13.680Z,1017.38
2017-04-04T04:48:13.665Z,1017.38
2017-04-04T04:49:13.642Z,1017.38
2017-04-04T04:50:13.612Z,1017.38
2017-04-04T04:51:13.592Z,1017.39
2017-04-04T04:52:13.574Z,1017.4
2017-04-04T04:53:13.552Z,1017.38
2017-04-04T04:54:13.521Z,1017.43
2017-04-04T04:55:13.499Z,1017.42
2017-04-04T04:56:13.481Z,1017.42
2017-04-04T04:57:13.458Z,1017.42
2017-04-04T04:58:13.432Z,1017.45
2017-04-04T04:59:13.413Z,1017.44
2017-04-04T05:00:13.393Z,1017.46
2017-04-04T05:01:13.372Z,1017.48
2017-04-04T05:02:13.353Z,1017.49
2017-04-04T05:03:13.330Z,1017.5
2017-04-04T05:04:13.301Z,1017.47
2017-04-04T05:05:13.282Z,1017.49
2017-04-04T05:06:13.262Z,1017.46
2017-04-04T05:07:13.238Z,1017.46
2017-04-04T05:08:13.212Z,1017.4
2017-04-04T05:09:13.192Z,1017.43
2017-04-04T05:10:13.169Z,1017.42
2017-04-04T05:11:13.156Z,1017.45
2017-04-04T05:12:13.125Z,1017.43
2017-04-04T05:13:13.102Z,1017.42
2017-04-04T05:14:13.079Z,1017.4
2017-04-04T05:15:13.056Z,1017.43
2017-04-04T05:16:13.037Z,1017.45
2017-04-04T05:17:13.013Z,1017.42
2017-04-04T05:18:12.992Z,1017.44
2017-04-04T05:19:12.968Z,1017.46
2017-04-04T05:20:12.948Z,1017.48
2017-04-04T05:21:12.925Z,1017.48
2017-04-04T05:22:12.902Z,1017.49
2017-04-04T05:23:12.885Z,1017.51
2017-04-04T05:24:12.874Z,1017.52
2017-04-04T05:25:12.835Z,1017.52
2017-04-04T05:26:12.815Z,1017.53
2017-04-04T05:27:12.791Z,1017.56
2017-04-04T05:28:12.772Z,1017.6
2017-04-04T05:29:12.753Z,1017.6
2017-04-04T05:30:12.731Z,1017.64
2017-04-04T05:31:12.702Z,1017.65
2017-04-04T05:32:12.683Z,1017.65
2017-04-04T05:33:12.665Z,1017.67
2017-04-04T05:34:12.638Z,1017.68
2017-04-04T05:35:12.614Z,1017.69
2017-04-04T05:36:12.602Z,1017.72
2017-04-04T05:37:12.572Z,1017.74
2017-04-04T05:38:12.555Z,1017.77
2017-04-04T05:39:12.534Z,1017.78
2017-04-04T05:40:12.537Z,1017.79
2017-04-04T05:41:12.493Z,1017.8
2017-04-04T05:42:12.573Z,1017.78
2017-04-04T05:43:12.443Z,1017.78
2017-04-04T05:44:12.429Z,1017.78
2017-04-04T05:45:12.399Z,1017.77
2017-04-04T05:46:12.376Z,1017.76
2017-04-04T05:47:12.355Z,1017.76
2017-04-04T05:48:12.338Z,1017.75
2017-04-04T05:49:12.348Z,1017.76
2017-04-04T05:50:12.397Z,1017.82
2017-04-04T05:51:12.265Z,1017.79
2017-04-04T05:52:12.243Z,1017.78
2017-04-04T05:53:12.221Z,1017.81
2017-04-04T05:54:12.203Z,1017.76
2017-04-04T05:55:12.181Z,1017.75
2017-04-04T05:56:12.156Z,1017.7
2017-04-04T05:57:12.133Z,1017.74
2017-04-04T05:58:12.117Z,1017.68
2017-04-04T05:59:12.092Z,1017.72
2017-04-04T06:00:12.067Z,1017.7
2017-04-04T06:01:12.043Z,1017.71
2017-04-04T06:02:12.025Z,1017.7
2017-04-04T06:03:12.006Z,1017.72
2017-04-04T06:04:11.984Z,1017.74
2017-04-04T06:05:11.957Z,1017.75
2017-04-04T06:06:11.943Z,1017.76
2017-04-04T06:07:11.919Z,1017.74
2017-04-04T06:08:11.894Z,1017.72
2017-04-04T06:09:11.873Z,1017.7
2017-04-04T06:10:11.860Z,1017.73
2017-04-04T06:11:11.831Z,1017.73
2017-04-04T06:12:11.807Z,1017.71
2017-04-04T06:13:11.789Z,1017.73
2017-04-04T06:14:11.768Z,1017.71
2017-04-04T06:15:11.743Z,1017.73
2017-04-04T06:16:11.720Z,1017.72
2017-04-04T06:17:11.704Z,1017.76
2017-04-04T06:18:11.680Z,1017.76
2017-04-04T06:19:11.656Z,1017.78
2017-04-04T06:20:11.643Z,1017.76
2017-04-04T06:21:11.613Z,1017.8
2017-04-04T06:22:11.593Z,1017.75
2017-04-04T06:23:11.574Z,1017.74
2017-04-04T06:24:11.556Z,1017.79
2017-04-04T06:25:11.531Z,1017.77
2017-04-04T06:26:11.507Z,1017.75
2017-04-04T06:27:11.490Z,1017.78
2017-04-04T06:28:11.467Z,1017.78
2017-04-04T06:29:11.451Z,1017.81
2017-04-04T06:30:11.425Z,1017.82
2017-04-04T06:31:11.404Z,1017.83
2017-04-04T06:32:11.383Z,1017.81
2017-04-04T06:33:11.364Z,1017.81
2017-04-04T06:34:11.339Z,1017.79
2017-04-04T06:35:11.317Z,1017.79
2017-04-04T06:36:11.339Z,1017.78
2017-04-04T06:37:11.282Z,1017.8
2017-04-04T06:38:11.261Z,1017.78
2017-04-04T06:39:11.233Z,1017.82
2017-04-04T06:40:11.214Z,1017.82
2017-04-04T06:41:11.197Z,1017.79
2017-04-04T06:42:11.174Z,1017.82
2017-04-04T06:43:11.150Z,1017.84
2017-04-04T06:44:11.134Z,1017.82
2017-04-04T06:45:11.108Z,1017.82
2017-04-04T06:46:11.089Z,1017.85
2017-04-04T06:47:11.070Z,1017.87
2017-04-04T06:48:11.063Z,1017.91
2017-04-04T06:49:11.037Z,1017.87
2017-04-04T06:50:11.005Z,1017.92
2017-04-04T06:51:10.985Z,1017.92
2017-04-04T06:52:10.963Z,1017.92
2017-04-04T06:53:10.944Z,1017.94
2017-04-04T06:54:10.930Z,1017.93
2017-04-04T06:55:10.903Z,1017.95
2017-04-04T06:56:10.883Z,1017.96
2017-04-04T06:57:10.866Z,1017.98
2017-04-04T06:58:10.844Z,1017.97
2017-04-04T06:59:10.821Z,1017.96
2017-04-04T07:00:10.804Z,1017.96
2017-04-04T07:01:10.786Z,1017.97
2017-04-04T07:02:10.759Z,1017.96
2017-04-04T07:03:10.750Z,1018.02
2017-04-04T07:04:10.721Z,1018.01
2017-04-04T07:05:10.703Z,1018
2017-04-04T07:06:10.684Z,1018.06
2017-04-04T07:07:10.668Z,1018.01
2017-04-04T07:08:10.643Z,1018.01
2017-04-04T07:09:10.620Z,1018.03
2017-04-04T07:10:10.602Z,1018.04
2017-04-04T07:11:10.595Z,1018.08
2017-04-04T07:12:10.570Z,1018.1
2017-04-04T07:13:10.554Z,1018.08
2017-04-04T07:14:10.542Z,1018.07
2017-04-04T07:15:10.523Z,1018.12
2017-04-04T07:16:10.504Z,1018.17
2017-04-04T07:17:10.486Z,1018.17
2017-04-04T07:18:10.468Z,1018.18
2017-04-04T07:19:10.451Z,1018.14
2017-04-04T07:20:10.439Z,1018.2
2017-04-04T07:21:10.423Z,1018.2
2017-04-04T07:22:10.403Z,1018.23
2017-04-04T07:23:10.392Z,1018.22
2017-04-04T07:24:10.376Z,1018.28
2017-04-04T07:25:10.365Z,1018.3
2017-04-04T07:26:10.345Z,1018.29
2017-04-04T07:27:10.333Z,1018.35
2017-04-04T07:28:10.315Z,1018.31
2017-04-04T07:29:10.299Z,1018.35
2017-04-04T07:30:10.284Z,1018.36
2017-04-04T07:31:10.274Z,1018.4
2017-04-04T07:32:10.252Z,1018.38
2017-04-04T07:33:10.242Z,1018.38
2017-04-04T07:34:10.225Z,1018.41
2017-04-04T07:35:10.213Z,1018.42
2017-04-04T07:36:10.203Z,1018.46
2017-04-04T07:37:10.183Z,1018.47
2017-04-04T07:38:10.173Z,1018.41
2017-04-04T07:39:10.155Z,1018.51
2017-04-04T07:40:10.141Z,1018.54
2017-04-04T07:41:10.136Z,1018.57
2017-04-04T07:42:10.126Z,1018.57
2017-04-04T07:43:10.102Z,1018.58
2017-04-04T07:44:10.092Z,1018.57
2017-04-04T07:45:10.082Z,1018.56
2017-04-04T07:46:10.077Z,1018.65
2017-04-04T07:47:10.062Z,1018.67
2017-04-04T07:48:10.048Z,1018.68
2017-04-04T07:49:10.033Z,1018.7
2017-04-04T07:50:10.072Z,1018.77
2017-04-04T07:51:10.026Z,1018.74
2017-04-04T07:52:10.011Z,1018.76
2017-04-04T07:53:10.006Z,1018.79
2017-04-04T07:54:09.992Z,1018.76
2017-04-04T07:55:09.979Z,1018.8
2017-04-04T07:56:10.074Z,1018.78
2017-04-04T07:57:09.962Z,1018.75
2017-04-04T07:58:09.958Z,1018.79
2017-04-04T07:59:09.948Z,1018.82
2017-04-04T08:00:09.941Z,1018.79
2017-04-04T08:01:09.931Z,1018.77
2017-04-04T08:02:09.972Z,1018.78
2017-04-04T08:03:09.923Z,1018.77
2017-04-04T08:04:09.906Z,1018.76
2017-04-04T08:05:09.904Z,1018.7
2017-04-04T08:06:09.907Z,1018.78
2017-04-04T08:07:09.899Z,1018.74
2017-04-04T08:08:09.883Z,1018.71
2017-04-04T08:09:09.883Z,1018.75
2017-04-04T08:10:09.874Z,1018.73
2017-04-04T08:11:09.872Z,1018.73
2017-04-04T08:12:09.860Z,1018.7
2017-04-04T08:13:09.851Z,1018.72
2017-04-04T08:14:09.854Z,1018.72
2017-04-04T08:15:09.843Z,1018.7
2017-04-04T08:16:09.834Z,1018.73
2017-04-04T08:17:09.833Z,1018.71
2017-04-04T08:18:09.823Z,1018.71
2017-04-04T08:19:09.819Z,1018.73
2017-04-04T08:20:09.824Z,1018.69
2017-04-04T08:21:09.811Z,1018.73
2017-04-04T08:22:09.803Z,1018.75
2017-04-04T08:23:09.800Z,1018.72
2017-04-04T08:24:09.795Z,1018.71
2017-04-04T08:25:09.792Z,1018.72
2017-04-04T08:26:09.793Z,1018.72
2017-04-04T08:27:09.794Z,1018.73
2017-04-04T08:28:09.778Z,1018.77
2017-04-04T08:29:09.782Z,1018.79
2017-04-04T08:30:09.775Z,1018.76
2017-04-04T08:31:09.770Z,1018.76
2017-04-04T08:32:09.765Z,1018.78
2017-04-04T08:33:09.767Z,1018.78
2017-04-04T08:34:09.763Z,1018.78
2017-04-04T08:35:09.755Z,1018.8
2017-04-04T08:36:09.749Z,1018.86
2017-04-04T08:37:09.753Z,1018.86
2017-04-04T08:38:09.745Z,1018.84
2017-04-04T08:39:09.736Z,1018.89
2017-04-04T08:40:09.733Z,1018.89
2017-04-04T08:41:09.742Z,1018.89
2017-04-04T08:42:09.735Z,1018.91
2017-04-04T08:43:09.724Z,1018.9
2017-04-04T08:44:09.723Z,1018.88
2017-04-04T08:45:09.720Z,1018.84
2017-04-04T08:46:09.722Z,1018.87
2017-04-04T08:47:09.755Z,1018.84
2017-04-04T08:48:09.712Z,1018.91
2017-04-04T08:49:09.704Z,1018.89
2017-04-04T08:50:09.703Z,1018.89
2017-04-04T08:51:09.700Z,1018.9
2017-04-04T08:52:09.706Z,1018.89
2017-04-04T08:53:09.697Z,1018.86
2017-04-04T08:54:09.697Z,1018.88
2017-04-04T08:55:09.691Z,1018.92
2017-04-04T08:56:09.681Z,1018.89
2017-04-04T08:57:09.681Z,1018.88
2017-04-04T08:58:09.681Z,1018.85
2017-04-04T08:59:09.678Z,1018.9
2017-04-04T09:00:09.673Z,1018.86
2017-04-04T09:01:09.675Z,1018.88
2017-04-04T09:02:09.673Z,1018.85
2017-04-04T09:03:09.676Z,1018.84
2017-04-04T09:04:09.662Z,1018.83
2017-04-04T09:05:09.660Z,1018.84
2017-04-04T09:06:09.662Z,1018.8
2017-04-04T09:07:09.656Z,1018.83
2017-04-04T09:08:09.654Z,1018.85
2017-04-04T09:09:09.649Z,1018.85
2017-04-04T09:10:09.645Z,1018.82
2017-04-04T09:11:09.641Z,1018.82
2017-04-04T09:12:09.641Z,1018.83
2017-04-04T09:13:09.641Z,1018.87
2017-04-04T09:14:09.644Z,1018.86
2017-04-04T09:15:09.643Z,1018.89
2017-04-04T09:16:09.632Z,1018.92
2017-04-04T09:17:09.633Z,1018.91
2017-04-04T09:18:09.630Z,1018.94
2017-04-04T09:19:09.626Z,1018.96
2017-04-04T09:20:09.621Z,1018.94
2017-04-04T09:21:09.623Z,1018.87
2017-04-04T09:22:09.618Z,1018.91
2017-04-04T09:23:09.629Z,1018.89
2017-04-04T09:24:09.616Z,1018.87
2017-04-04T09:25:09.615Z,1018.85
2017-04-04T09:26:09.611Z,1018.89
2017-04-04T09:27:09.644Z,1018.86
2017-04-04T09:28:09.612Z,1018.86
2017-04-04T09:29:09.605Z,1018.89
2017-04-04T09:30:09.602Z,1018.88
2017-04-04T09:31:09.606Z,1018.9
2017-04-04T09:32:09.601Z,1018.91
2017-04-04T09:33:09.605Z,1018.87
2017-04-04T09:34:09.595Z,1018.86
2017-04-04T09:35:09.608Z,1018.83
2017-04-04T09:36:09.592Z,1018.82
2017-04-04T09:37:09.595Z,1018.83
2017-04-04T09:38:09.582Z,1018.8
2017-04-04T09:39:09.582Z,1018.8
2017-04-04T09:40:09.582Z,1018.75
2017-04-04T09:41:09.581Z,1018.78
2017-04-04T09:42:09.573Z,1018.76
2017-04-04T09:43:09.573Z,1018.76
2017-04-04T09:44:09.575Z,1018.75
2017-04-04T09:45:09.564Z,1018.78
2017-04-04T09:46:09.566Z,1018.73
2017-04-04T09:47:09.560Z,1018.72
2017-04-04T09:48:09.561Z,1018.72
2017-04-04T09:49:09.554Z,1018.7
2017-04-04T09:50:09.553Z,1018.67
2017-04-04T09:51:09.553Z,1018.67
2017-04-04T09:52:09.542Z,1018.64
2017-04-04T09:53:09.538Z,1018.64
2017-04-04T09:54:09.534Z,1018.64
2017-04-04T09:55:09.531Z,1018.65
2017-04-04T09:56:09.528Z,1018.65
2017-04-04T09:57:09.527Z,1018.62
2017-04-04T09:58:09.518Z,1018.64
2017-04-04T09:59:09.522Z,1018.63
2017-04-04T10:00:09.513Z,1018.6
2017-04-04T10:01:09.515Z,1018.59
2017-04-04T10:02:09.514Z,1018.59
2017-04-04T10:03:09.502Z,1018.59
2017-04-04T10:04:09.499Z,1018.55
2017-04-04T10:05:09.495Z,1018.51
2017-04-04T10:06:09.495Z,1018.51
2017-04-04T10:07:09.492Z,1018.52
2017-04-04T10:08:09.482Z,1018.54
2017-04-04T10:09:09.482Z,1018.56
2017-04-04T10:10:09.466Z,1018.53
2017-04-04T10:11:09.468Z,1018.5
2017-04-04T10:12:09.460Z,1018.51
2017-04-04T10:13:09.451Z,1018.5
2017-04-04T10:14:09.463Z,1018.48
2017-04-04T10:15:09.444Z,1018.51
2017-04-04T10:16:09.442Z,1018.45
2017-04-04T10:17:09.432Z,1018.49
2017-04-04T10:18:09.437Z,1018.46
2017-04-04T10:19:09.420Z,1018.45
2017-04-04T10:20:09.411Z,1018.46
2017-04-04T10:21:09.412Z,1018.46
2017-04-04T10:22:09.401Z,1018.44
2017-04-04T10:23:09.401Z,1018.44
2017-04-04T10:24:09.392Z,1018.47
2017-04-04T10:25:09.381Z,1018.42
2017-04-04T10:26:09.381Z,1018.37
2017-04-04T10:27:09.367Z,1018.39
2017-04-04T10:28:09.360Z,1018.39
2017-04-04T10:29:09.352Z,1018.36
2017-04-04T10:30:09.344Z,1018.37
2017-04-04T10:31:09.375Z,1018.38
2017-04-04T10:32:09.333Z,1018.37
2017-04-04T10:33:09.321Z,1018.37
2017-04-04T10:34:09.318Z,1018.39
2017-04-04T10:35:09.306Z,1018.36
2017-04-04T10:36:09.298Z,1018.34
2017-04-04T10:37:09.291Z,1018.34
2017-04-04T10:38:09.280Z,1018.4
2017-04-04T10:39:09.273Z,1018.37
2017-04-04T10:40:09.272Z,1018.42
2017-04-04T10:41:09.270Z,1018.4
2017-04-04T10:42:09.249Z,1018.39
2017-04-04T10:43:09.242Z,1018.37
2017-04-04T10:44:09.231Z,1018.36
2017-04-04T10:45:09.221Z,1018.37
2017-04-04T10:46:09.214Z,1018.34
2017-04-04T10:47:09.208Z,1018.3
2017-04-04T10:48:09.204Z,1018.29
2017-04-04T10:49:09.190Z,1018.3
2017-04-04T10:50:09.182Z,1018.34
2017-04-04T10:51:09.171Z,1018.28
2017-04-04T10:52:09.159Z,1018.3
2017-04-04T10:53:09.151Z,1018.32
2017-04-04T10:54:09.140Z,1018.31
2017-04-04T10:55:09.132Z,1018.32
2017-04-04T10:56:09.131Z,1018.34
2017-04-04T10:57:09.121Z,1018.34
2017-04-04T10:58:09.108Z,1018.32
2017-04-04T10:59:09.099Z,1018.35
2017-04-04T11:00:09.090Z,1018.29
2017-04-04T11:01:09.083Z,1018.3
2017-04-04T11:02:09.071Z,1018.3
2017-04-04T11:03:09.070Z,1018.29
2017-04-04T11:04:09.053Z,1018.27
2017-04-04T11:05:09.052Z,1018.23
2017-04-04T11:06:09.036Z,1018.21
2017-04-04T11:07:09.029Z,1018.21
2017-04-04T11:08:09.020Z,1018.22
2017-04-04T11:09:09.012Z,1018.21
2017-04-04T11:10:09.010Z,1018.25
2017-04-04T11:11:09.004Z,1018.19
2017-04-04T11:12:08.990Z,1018.19
2017-04-04T11:13:08.978Z,1018.22
2017-04-04T11:14:08.971Z,1018.18
2017-04-04T11:15:08.957Z,1018.15
2017-04-04T11:16:08.952Z,1018.13
2017-04-04T11:17:08.941Z,1018.12
2017-04-04T11:18:08.927Z,1018.11
2017-04-04T11:19:08.920Z,1018.1
2017-04-04T11:20:08.910Z,1018.09
2017-04-04T11:21:08.901Z,1018.06
2017-04-04T11:22:09.498Z,1018.04
2017-04-04T11:23:08.883Z,1018.05
2017-04-04T11:24:08.884Z,1018.07
2017-04-04T11:25:08.866Z,1018.03
2017-04-04T11:26:08.861Z,1017.99
2017-04-04T11:27:08.851Z,1017.95
2017-04-04T11:28:08.838Z,1018
2017-04-04T11:29:08.833Z,1018
2017-04-04T11:30:08.820Z,1017.98
2017-04-04T11:31:08.812Z,1018.01
2017-04-04T11:32:08.801Z,1017.97
2017-04-04T11:33:08.795Z,1017.92
2017-04-04T11:34:08.780Z,1017.96
2017-04-04T11:35:08.774Z,1017.94
2017-04-04T11:36:08.760Z,1017.97
2017-04-04T11:37:08.756Z,1017.96
2017-04-04T11:38:08.741Z,1017.94
2017-04-04T11:39:08.744Z,1017.91
2017-04-04T11:40:08.730Z,1017.92
2017-04-04T11:41:08.724Z,1017.9
2017-04-04T11:42:08.711Z,1017.92
2017-04-04T11:43:08.699Z,1017.91
2017-04-04T11:44:08.687Z,1017.88
2017-04-04T11:45:08.682Z,1017.89
2017-04-04T11:46:08.666Z,1017.85
2017-04-04T11:47:08.664Z,1017.86
2017-04-04T11:48:08.662Z,1017.86
2017-04-04T11:49:08.636Z,1017.84
2017-04-04T11:50:08.628Z,1017.87
2017-04-04T11:51:08.615Z,1017.84
2017-04-04T11:52:08.613Z,1017.83
2017-04-04T11:53:08.601Z,1017.82
2017-04-04T11:54:08.593Z,1017.83
2017-04-04T11:55:08.581Z,1017.85
2017-04-04T11:56:08.582Z,1017.85
2017-04-04T11:57:08.561Z,1017.85
2017-04-04T11:58:08.551Z,1017.84
2017-04-04T11:59:08.546Z,1017.85
2017-04-04T12:00:08.531Z,1017.82
2017-04-04T12:01:08.523Z,1017.81
2017-04-04T12:02:08.512Z,1017.8
2017-04-04T12:03:08.502Z,1017.83
2017-04-04T12:04:08.493Z,1017.8
2017-04-04T12:05:08.487Z,1017.85
2017-04-04T12:06:08.470Z,1017.81
2017-04-04T12:07:08.465Z,1017.82
2017-04-04T12:08:08.450Z,1017.73